createdAt,value
2018-04-02T00:01:35.162Z,15.80
2018-04-02T00:04:04.880Z,16.57
2018-04-02T00:06:35.011Z,18.13
2018-04-02T00:09:03.367Z,17.13
2018-04-02T00:11:33.477Z,17.63
2018-04-02T00:14:01.898Z,17.67
2018-04-02T00:16:30.288Z,18.60
2018-04-02T00:18:59.909Z,17.10
2018-04-02T00:21:29.244Z,20.73
2018-04-02T00:23:58.424Z,18.73
2018-04-02T00:26:27.237Z,19.40
2018-04-02T00:28:55.618Z,20.13
2018-04-02T00:31:25.116Z,21.33
2018-04-02T00:33:53.889Z,20.03
2018-04-02T00:36:23.464Z,24.70
2018-04-02T00:38:53.676Z,23.67
2018-04-02T00:41:22.006Z,25.63
2018-04-02T00:43:51.196Z,25.40
2018-04-02T00:46:19.565Z,27.97
2018-04-02T00:48:48.415Z,28.03
2018-04-02T00:51:19.554Z,27.50
2018-04-02T00:53:47.913Z,28.17
2018-04-02T00:56:17.062Z,28.90
2018-04-02T00:58:46.849Z,30.50
2018-04-02T01:01:15.319Z,31.07
2018-04-02T01:03:45.515Z,31.03
2018-04-02T01:06:15.265Z,30.67
2018-04-02T01:08:45.124Z,29.97
2018-04-02T01:11:14.273Z,30.90
2018-04-02T01:13:43.029Z,30.37
2018-04-02T01:16:12.333Z,31.27
2018-04-02T01:18:40.925Z,32.33
2018-04-02T01:21:10.794Z,29.93
2018-04-02T01:23:39.110Z,32.47
2018-04-02T01:26:08.951Z,31.43
2018-04-02T01:28:37.609Z,32.73
2018-04-02T01:31:07.111Z,33.20
2018-04-02T01:33:35.469Z,36.47
2018-04-02T01:36:05.022Z,36.20
2018-04-02T01:38:34.143Z,37.30
2018-04-02T01:41:02.871Z,41.17
2018-04-02T01:43:31.513Z,42.00
2018-04-02T01:45:59.905Z,48.53
2018-04-02T01:48:28.720Z,53.80
2018-04-02T01:50:58.201Z,54.13
2018-04-02T01:53:27.357Z,57.87
2018-04-02T01:55:57.086Z,63.13
2018-04-02T01:58:25.550Z,62.07
2018-04-02T02:00:54.637Z,63.47
2018-04-02T02:03:24.895Z,60.47
2018-04-02T02:05:53.291Z,61.57
2018-04-02T02:08:23.444Z,58.33
2018-04-02T02:10:51.867Z,56.73
2018-04-02T02:13:20.399Z,55.30
2018-04-02T02:15:48.734Z,53.03
2018-04-02T02:18:18.377Z,58.27
2018-04-02T02:20:46.720Z,53.90
2018-04-02T02:23:15.042Z,56.70
2018-04-02T02:25:43.412Z,54.40
2018-04-02T02:28:12.439Z,50.23
2018-04-02T02:30:41.897Z,55.33
2018-04-02T02:33:11.202Z,52.37
2018-04-02T02:35:40.572Z,50.50
2018-04-02T02:38:09.392Z,49.87
2018-04-02T02:40:38.744Z,49.50
2018-04-02T02:43:07.073Z,52.17
2018-04-02T02:45:35.590Z,46.50
2018-04-02T02:48:05.606Z,50.50
2018-04-02T02:50:33.976Z,50.37
2018-04-02T02:53:04.537Z,50.17
2018-04-02T02:55:32.913Z,51.03
2018-04-02T02:58:01.897Z,49.10
2018-04-02T03:00:30.283Z,52.27
2018-04-02T03:02:58.790Z,51.40
2018-04-02T03:05:27.360Z,47.13
2018-04-02T03:07:56.712Z,45.80
2018-04-02T03:10:25.725Z,47.57
2018-04-02T03:12:55.001Z,51.60
2018-04-02T03:15:24.535Z,52.70
2018-04-02T03:17:55.939Z,52.40
2018-04-02T03:20:24.542Z,52.17
2018-04-02T03:22:53.344Z,52.30
2018-04-02T03:25:21.996Z,50.00
2018-04-02T03:27:52.055Z,54.83
2018-04-02T03:30:20.440Z,55.07
2018-04-02T03:32:49.063Z,54.30
2018-04-02T03:35:18.232Z,58.30
2018-04-02T03:37:47.437Z,59.80
2018-04-02T03:40:16.161Z,58.13
2018-04-02T03:42:45.436Z,62.50
2018-04-02T03:45:14.518Z,59.93
2018-04-02T03:47:42.873Z,62.10
2018-04-02T03:50:12.502Z,64.77
2018-04-02T03:52:41.646Z,65.80
2018-04-02T03:55:10.696Z,62.80
2018-04-02T03:57:39.230Z,61.00
2018-04-02T04:00:08.362Z,59.47
2018-04-02T04:02:38.220Z,60.70
2018-04-02T04:05:08.485Z,65.80
2018-04-02T04:07:37.736Z,59.47
2018-04-02T04:10:07.158Z,63.23
2018-04-02T04:12:35.773Z,60.73
2018-04-02T04:15:05.023Z,64.47
2018-04-02T04:17:34.026Z,63.43
2018-04-02T04:20:03.704Z,60.67
2018-04-02T04:22:32.860Z,62.63
2018-04-02T04:25:01.724Z,60.73
2018-04-02T04:27:30.748Z,66.43
2018-04-02T04:30:00.108Z,71.07
2018-04-02T04:32:28.942Z,61.53
2018-04-02T04:34:59.048Z,64.63
2018-04-02T04:37:27.373Z,67.97
2018-04-02T04:39:55.790Z,69.03
2018-04-02T04:42:25.831Z,63.10
2018-04-02T04:44:55.009Z,63.43
2018-04-02T04:47:23.594Z,69.27
2018-04-02T04:49:52.765Z,60.97
2018-04-02T04:52:22.148Z,63.53
2018-04-02T04:54:51.975Z,63.97
2018-04-02T04:57:21.082Z,62.53
2018-04-02T04:59:50.676Z,67.53
2018-04-02T05:02:21.847Z,63.37
2018-04-02T05:04:51.120Z,64.07
2018-04-02T05:07:21.012Z,62.90
2018-04-02T05:09:50.182Z,62.20
2018-04-02T05:12:19.358Z,62.37
2018-04-02T05:14:47.630Z,62.63
2018-04-02T05:17:16.406Z,64.17
2018-04-02T05:19:45.208Z,58.43
2018-04-02T05:22:14.523Z,63.60
2018-04-02T05:24:43.683Z,63.17
2018-04-02T05:27:12.041Z,60.73
2018-04-02T05:29:40.577Z,66.00
2018-04-02T05:32:10.669Z,61.73
2018-04-02T05:34:39.517Z,70.27
2018-04-02T05:37:08.673Z,70.60
2018-04-02T05:39:38.444Z,69.33
2018-04-02T05:42:08.659Z,67.10
2018-04-02T05:44:36.987Z,67.80
2018-04-02T05:47:05.346Z,61.60
2018-04-02T05:49:34.944Z,64.70
2018-04-02T05:52:03.869Z,61.93
2018-04-02T05:54:32.265Z,67.73
2018-04-02T05:57:00.680Z,65.27
2018-04-02T05:59:29.342Z,67.23
2018-04-02T06:01:58.276Z,68.53
2018-04-02T06:04:28.631Z,66.67
2018-04-02T06:06:59.351Z,68.70
2018-04-02T06:09:28.625Z,62.07
2018-04-02T06:11:58.883Z,68.27
2018-04-02T06:14:27.684Z,70.63
2018-04-02T06:16:56.421Z,64.03
2018-04-02T06:19:25.533Z,60.47
2018-04-02T06:21:54.657Z,62.53
2018-04-02T06:24:23.840Z,65.07
2018-04-02T06:26:53.213Z,63.43
2018-04-02T06:29:21.729Z,60.07
2018-04-02T06:31:51.048Z,65.47
2018-04-02T06:34:19.357Z,56.87
2018-04-02T06:36:48.566Z,63.63
2018-04-02T06:39:18.589Z,60.60
2018-04-02T06:41:47.688Z,59.27
2018-04-02T06:44:17.469Z,58.73
2018-04-02T06:46:46.189Z,56.67
2018-04-02T06:49:15.381Z,51.80
2018-04-02T06:51:44.583Z,49.77
2018-04-02T06:54:14.090Z,45.77
2018-04-02T06:56:43.117Z,46.17
2018-04-02T06:59:11.814Z,47.70
2018-04-02T07:01:40.456Z,46.83
2018-04-02T07:04:08.785Z,43.23
2018-04-02T07:06:37.350Z,50.73
2018-04-02T07:09:07.270Z,38.70
2018-04-02T07:11:37.332Z,44.87
2018-04-02T07:14:08.229Z,44.90
2018-04-02T07:16:37.661Z,43.80
2018-04-02T07:19:07.479Z,42.30
2018-04-02T07:21:37.920Z,41.03
2018-04-02T07:24:06.837Z,43.73
2018-04-02T07:26:36.220Z,43.87
2018-04-02T07:29:04.990Z,42.33
2018-04-02T07:31:34.403Z,44.17
2018-04-02T07:34:04.660Z,44.90
2018-04-02T07:36:33.006Z,41.57
2018-04-02T07:39:03.880Z,42.60
2018-04-02T07:41:32.982Z,40.57
2018-04-02T07:44:02.332Z,43.83
2018-04-02T07:46:31.573Z,43.40
2018-04-02T07:49:00.966Z,36.87
2018-04-02T07:51:30.104Z,35.80
2018-04-02T07:53:58.729Z,39.07
2018-04-02T07:56:28.637Z,38.20
2018-04-02T07:58:58.991Z,36.90
2018-04-02T08:01:27.394Z,35.87
2018-04-02T08:03:56.465Z,34.50
2018-04-02T08:06:25.696Z,33.60
2018-04-02T08:08:54.376Z,36.63
2018-04-02T08:11:23.204Z,36.17
2018-04-02T08:13:52.986Z,31.30
2018-04-02T08:16:21.588Z,34.13
2018-04-02T08:18:49.964Z,33.60
2018-04-02T08:21:19.890Z,35.83
2018-04-02T08:23:49.054Z,30.77
2018-04-02T08:26:18.354Z,31.03
2018-04-02T08:28:46.938Z,30.70
2018-04-02T08:31:17.395Z,34.70
2018-04-02T08:33:48.175Z,36.33
2018-04-02T08:36:16.967Z,31.83
2018-04-02T08:38:46.277Z,32.40
2018-04-02T08:41:15.883Z,33.60
2018-04-02T08:43:45.600Z,34.73
2018-04-02T08:46:15.380Z,32.33
2018-04-02T08:48:44.658Z,32.20
2018-04-02T08:51:14.215Z,28.77
2018-04-02T08:53:44.369Z,31.80
2018-04-02T08:56:13.774Z,27.50
2018-04-02T08:58:42.103Z,28.43
2018-04-02T09:01:12.285Z,34.97
2018-04-02T09:03:41.463Z,29.43
2018-04-02T09:06:11.459Z,31.07
2018-04-02T09:08:41.459Z,28.70
2018-04-02T09:11:09.782Z,26.60
2018-04-02T09:13:38.139Z,25.97
2018-04-02T09:16:06.536Z,27.27
2018-04-02T09:18:34.886Z,25.13
2018-04-02T09:21:03.303Z,27.83
2018-04-02T09:23:31.894Z,28.60
2018-04-02T09:26:00.646Z,26.33
2018-04-02T09:28:29.054Z,24.83
2018-04-02T09:30:58.812Z,26.60
2018-04-02T09:33:29.078Z,26.10
2018-04-02T09:35:58.158Z,25.33
2018-04-02T09:38:26.559Z,27.60
2018-04-02T09:40:55.291Z,26.77
2018-04-02T09:43:23.660Z,27.53
2018-04-02T09:45:52.689Z,23.87
2018-04-02T09:48:21.185Z,25.57
2018-04-02T09:50:49.617Z,22.10
2018-04-02T09:53:20.583Z,20.27
2018-04-02T09:55:48.953Z,20.53
2018-04-02T09:58:18.132Z,22.60
2018-04-02T10:00:46.574Z,21.73
2018-04-02T10:03:16.139Z,22.60
2018-04-02T10:05:44.513Z,24.50
2018-04-02T10:08:14.211Z,20.20
2018-04-02T10:10:43.341Z,22.73
2018-04-02T10:13:12.630Z,20.90
2018-04-02T10:15:41.950Z,19.60
2018-04-02T10:18:10.317Z,22.63
2018-04-02T10:20:39.351Z,20.00
2018-04-02T10:23:09.639Z,22.70
2018-04-02T10:25:39.151Z,21.17
2018-04-02T10:28:08.410Z,20.53
2018-04-02T10:30:37.899Z,20.03
2018-04-02T10:33:06.308Z,21.90
2018-04-02T10:35:35.490Z,19.07
2018-04-02T10:38:05.717Z,18.47
2018-04-02T10:40:34.400Z,18.90
2018-04-02T10:43:04.521Z,19.17
2018-04-02T10:45:33.164Z,19.23
2018-04-02T10:48:02.321Z,16.97
2018-04-02T10:50:30.931Z,19.33
2018-04-02T10:53:00.123Z,16.00
2018-04-02T10:55:29.131Z,17.33
2018-04-02T10:58:01.369Z,19.13
2018-04-02T11:00:29.762Z,18.47
2018-04-02T11:02:59.302Z,17.43
2018-04-02T11:05:28.648Z,17.33
2018-04-02T11:07:57.086Z,16.23
2018-04-02T11:10:26.450Z,16.23
2018-04-02T11:12:54.817Z,14.80
2018-04-02T11:15:23.192Z,14.73
2018-04-02T11:17:53.097Z,15.97
2018-04-02T11:20:23.104Z,14.23
2018-04-02T11:22:52.298Z,16.30
2018-04-02T11:25:20.954Z,17.00
2018-04-02T11:27:49.368Z,16.57
2018-04-02T11:30:19.283Z,15.63
2018-04-02T11:32:49.515Z,14.00
2018-04-02T11:35:18.739Z,15.50
2018-04-02T11:37:48.013Z,15.43
2018-04-02T11:40:16.632Z,18.67
2018-04-02T11:42:45.526Z,15.80
2018-04-02T11:45:13.890Z,14.90
2018-04-02T11:47:42.978Z,20.60
2018-04-02T11:50:12.166Z,11.70
2018-04-02T11:52:41.283Z,16.83
2018-04-02T11:55:09.621Z,15.97
2018-04-02T11:57:37.961Z,14.73
2018-04-02T12:00:07.786Z,20.23
2018-04-02T12:02:36.318Z,15.27
2018-04-02T12:05:04.942Z,15.03
2018-04-02T12:07:33.324Z,14.67
2018-04-02T12:10:01.671Z,16.23
2018-04-02T12:12:30.057Z,17.30
2018-04-02T12:14:58.390Z,15.10
2018-04-02T12:17:27.983Z,13.20
2018-04-02T12:19:56.366Z,13.80
2018-04-02T12:22:24.768Z,11.30
2018-04-02T12:24:54.018Z,11.50
2018-04-02T12:27:23.835Z,10.47
2018-04-02T12:29:53.047Z,12.33
2018-04-02T12:32:22.515Z,11.27
2018-04-02T12:34:51.482Z,11.17
2018-04-02T12:37:19.832Z,11.37
2018-04-02T12:39:49.186Z,12.50
2018-04-02T12:42:17.549Z,12.43
2018-04-02T12:44:47.554Z,11.00
2018-04-02T12:47:15.959Z,11.50
2018-04-02T12:49:45.677Z,11.47
2018-04-02T12:52:14.034Z,10.97
2018-04-02T12:54:42.423Z,13.87
2018-04-02T12:57:11.680Z,11.27
2018-04-02T12:59:40.859Z,14.70
2018-04-02T13:02:09.852Z,11.77
2018-04-02T13:04:38.247Z,12.10
2018-04-02T13:07:07.512Z,10.63
2018-04-02T13:09:36.620Z,10.60
2018-04-02T13:12:04.939Z,9.63
2018-04-02T13:14:34.201Z,11.03
2018-04-02T13:17:02.560Z,10.57
2018-04-02T13:19:30.967Z,9.10
2018-04-02T13:21:59.335Z,7.93
2018-04-02T13:24:27.966Z,10.20
2018-04-02T13:26:57.161Z,10.30
2018-04-02T13:29:26.198Z,9.40
2018-04-02T13:31:55.362Z,8.73
2018-04-02T13:34:24.441Z,8.43
2018-04-02T13:36:52.769Z,9.13
2018-04-02T13:39:21.119Z,7.53
2018-04-02T13:41:50.252Z,9.07
2018-04-02T13:44:18.633Z,6.80
2018-04-02T13:46:47.005Z,6.97
2018-04-02T13:49:15.427Z,8.47
2018-04-02T13:51:44.597Z,10.07
2018-04-02T13:54:14.336Z,8.00
2018-04-02T13:56:43.465Z,7.37
2018-04-02T13:59:12.849Z,7.17
2018-04-02T14:01:41.170Z,7.13
2018-04-02T14:04:09.882Z,7.87
2018-04-02T14:06:38.209Z,7.90
2018-04-02T14:09:09.296Z,6.03
2018-04-02T14:11:39.139Z,6.20
2018-04-02T14:14:07.477Z,6.23
2018-04-02T14:16:35.849Z,7.10
2018-04-02T14:19:05.046Z,6.93
2018-04-02T14:21:34.239Z,6.57
2018-04-02T14:24:02.926Z,5.77
2018-04-02T14:26:32.314Z,6.43
2018-04-02T14:29:00.665Z,6.73
2018-04-02T14:31:28.994Z,6.57
2018-04-02T14:33:57.389Z,5.40
2018-04-02T14:36:26.567Z,6.20
2018-04-02T14:38:54.954Z,5.57
2018-04-02T14:41:23.327Z,4.77
2018-04-02T14:43:52.577Z,7.87
2018-04-02T14:46:22.139Z,4.60
2018-04-02T14:48:50.484Z,5.23
2018-04-02T14:51:18.809Z,5.03
2018-04-02T14:53:47.220Z,4.87
2018-04-02T14:56:16.667Z,5.03
2018-04-02T14:58:46.839Z,4.40
2018-04-02T15:01:15.820Z,5.67
2018-04-02T15:03:44.936Z,4.57
2018-04-02T15:06:13.302Z,5.87
2018-04-02T15:08:41.680Z,4.67
2018-04-02T15:11:10.870Z,7.37
2018-04-02T15:13:39.254Z,4.67
2018-04-02T15:16:08.409Z,8.93
2018-04-02T15:18:36.816Z,5.03
2018-04-02T15:21:05.718Z,5.47
2018-04-02T15:23:35.250Z,4.43
2018-04-02T15:26:04.631Z,5.90
2018-04-02T15:28:33.318Z,5.20
2018-04-02T15:31:01.908Z,5.30
2018-04-02T15:33:30.778Z,4.70
2018-04-02T15:35:59.453Z,3.90
2018-04-02T15:38:27.827Z,6.80
2018-04-02T15:40:57.823Z,5.50
2018-04-02T15:43:26.900Z,4.50
2018-04-02T15:45:56.073Z,5.17
2018-04-02T15:48:24.462Z,3.90
2018-04-02T15:50:53.227Z,6.37
2018-04-02T15:53:21.952Z,7.43
2018-04-02T15:55:51.374Z,4.70
2018-04-02T15:58:20.000Z,5.77
2018-04-02T16:00:48.375Z,5.50
2018-04-02T16:03:18.247Z,3.87
2018-04-02T16:05:47.645Z,5.60
2018-04-02T16:08:16.948Z,3.03
2018-04-02T16:10:45.413Z,4.10
2018-04-02T16:13:14.891Z,6.27
2018-04-02T16:15:43.277Z,3.83
2018-04-02T16:18:12.326Z,4.90
2018-04-02T16:20:40.707Z,6.37
2018-04-02T16:23:09.917Z,3.70
2018-04-02T16:25:38.342Z,5.80
2018-04-02T16:28:07.467Z,3.60
2018-04-02T16:30:36.093Z,4.30
2018-04-02T16:33:05.325Z,6.50
2018-04-02T16:35:33.684Z,6.43
2018-04-02T16:38:02.042Z,6.00
2018-04-02T16:40:31.759Z,3.53
2018-04-02T16:43:00.171Z,2.40
2018-04-02T16:45:28.550Z,3.73
2018-04-02T16:47:57.765Z,3.40
2018-04-02T16:53:40.386Z,4.10
2018-04-02T16:56:09.028Z,5.17
2018-04-02T16:58:39.337Z,2.63
2018-04-02T17:01:09.432Z,2.57
2018-04-02T17:03:38.184Z,2.87
2018-04-02T17:06:07.417Z,6.67
2018-04-02T17:08:36.713Z,3.87
2018-04-02T17:11:06.927Z,3.57
2018-04-02T17:13:35.978Z,3.00
2018-04-02T17:16:04.312Z,2.00
2018-04-02T17:18:32.715Z,5.03
2018-04-02T17:21:02.805Z,2.83
2018-04-02T17:23:31.198Z,3.00
2018-04-02T17:26:00.318Z,2.80
2018-04-02T17:28:29.716Z,3.50
2018-04-02T17:30:58.773Z,2.93
2018-04-02T17:33:28.931Z,2.97
2018-04-02T17:35:58.273Z,3.80
2018-04-02T17:38:27.365Z,3.20
2018-04-02T17:40:56.833Z,8.23
2018-04-02T17:43:25.230Z,3.93
2018-04-02T17:45:54.078Z,3.73
2018-04-02T17:48:23.156Z,5.30
2018-04-02T17:50:53.072Z,2.77
2018-04-02T17:53:21.483Z,3.73
2018-04-02T17:55:49.907Z,6.97
2018-04-02T17:58:19.636Z,3.03
2018-04-02T18:00:47.958Z,2.90
2018-04-02T18:03:17.635Z,3.33
2018-04-02T18:05:46.300Z,3.27
2018-04-02T18:08:15.433Z,2.97
2018-04-02T18:10:44.152Z,2.47
2018-04-02T18:13:13.413Z,2.70
2018-04-02T18:15:43.389Z,3.00
2018-04-02T18:18:11.770Z,4.57
2018-04-02T18:20:40.235Z,5.90
2018-04-02T18:23:08.602Z,5.03
2018-04-02T18:25:38.398Z,2.60
2018-04-02T18:28:07.698Z,5.10
2018-04-02T18:30:36.816Z,3.97
2018-04-02T18:33:06.115Z,4.33
2018-04-02T18:35:37.854Z,3.93
2018-04-02T18:38:06.660Z,4.30
2018-04-02T18:40:35.011Z,3.83
2018-04-02T18:43:04.013Z,3.70
2018-04-02T18:45:32.842Z,4.13
2018-04-02T18:48:01.899Z,4.03
2018-04-02T18:50:30.287Z,3.80
2018-04-02T18:52:59.598Z,3.10
2018-04-02T18:55:29.092Z,3.40
2018-04-02T18:57:58.242Z,2.77
2018-04-02T19:00:27.252Z,3.67
2018-04-02T19:02:56.549Z,3.27
2018-04-02T19:05:26.088Z,3.90
2018-04-02T19:07:55.300Z,2.60
2018-04-02T19:10:24.802Z,2.50
2018-04-02T19:12:55.216Z,3.30
2018-04-02T19:15:24.360Z,3.33
2018-04-02T19:17:52.959Z,3.50
2018-04-02T19:20:22.575Z,2.67
2018-04-02T19:22:52.542Z,3.50
2018-04-02T19:25:22.675Z,3.27
2018-04-02T19:27:52.778Z,2.00
2018-04-02T19:30:21.167Z,2.53
2018-04-02T19:32:50.723Z,2.87
2018-04-02T19:35:20.168Z,2.70
2018-04-02T19:37:48.939Z,1.70
2018-04-02T19:40:19.592Z,3.00
2018-04-02T19:42:47.921Z,2.50
2018-04-02T19:45:17.167Z,3.67
2018-04-02T19:47:45.523Z,3.03
2018-04-02T19:50:14.341Z,1.87
2018-04-02T19:52:43.569Z,1.90
2018-04-02T19:55:12.101Z,2.47
2018-04-02T19:57:40.424Z,4.10
2018-04-02T20:00:09.533Z,3.80
2018-04-02T20:02:39.928Z,2.00
2018-04-02T20:05:09.256Z,2.17
2018-04-02T20:07:38.614Z,2.80
2018-04-02T20:10:07.232Z,2.23
2018-04-02T20:12:36.629Z,3.33
2018-04-02T20:15:05.553Z,2.53
2018-04-02T20:17:33.912Z,2.57
2018-04-02T20:20:02.896Z,2.90
2018-04-02T20:22:31.315Z,1.97
2018-04-02T20:25:00.809Z,2.70
2018-04-02T20:27:29.413Z,2.30
2018-04-02T20:29:58.767Z,1.73
2018-04-02T20:32:27.176Z,3.23
2018-04-02T20:34:55.874Z,1.90
2018-04-02T20:37:24.580Z,3.00
2018-04-02T20:39:53.932Z,3.03
2018-04-02T20:42:22.383Z,2.40
2018-04-02T20:44:52.111Z,2.77
2018-04-02T20:47:23.995Z,3.57
2018-04-02T20:49:53.256Z,3.17
2018-04-02T20:52:22.516Z,2.53
2018-04-02T20:54:51.592Z,1.90
2018-04-02T20:57:19.994Z,1.67
2018-04-02T20:59:48.606Z,1.70
2018-04-02T21:02:18.592Z,2.40
2018-04-02T21:04:47.013Z,2.20
2018-04-02T21:07:17.650Z,2.00
2018-04-02T21:09:46.895Z,3.47
2018-04-02T21:12:20.810Z,2.33
2018-04-02T21:14:49.785Z,2.37
2018-04-02T21:17:19.899Z,4.23
2018-04-02T21:19:48.270Z,1.73
2018-04-02T21:22:16.987Z,2.63
2018-04-02T21:24:46.754Z,1.73
2018-04-02T21:27:15.570Z,2.83
2018-04-02T21:29:43.972Z,2.50
2018-04-02T21:32:13.285Z,2.37
2018-04-02T21:34:42.540Z,2.20
2018-04-02T21:37:11.977Z,1.60
2018-04-02T21:39:40.629Z,3.20
2018-04-02T21:42:10.788Z,2.50
2018-04-02T21:44:40.002Z,3.00
2018-04-02T21:47:10.708Z,1.70
2018-04-02T21:49:39.105Z,1.67
2018-04-02T21:52:07.704Z,4.20
2018-04-02T21:54:38.525Z,2.63
2018-04-02T21:57:08.514Z,2.87
2018-04-02T21:59:36.897Z,2.30
2018-04-02T22:02:07.291Z,1.50
2018-04-02T22:04:35.684Z,2.93
2018-04-02T22:07:07.181Z,2.40
2018-04-02T22:09:36.361Z,2.80
2018-04-02T22:12:06.435Z,2.33
2018-04-02T22:14:35.537Z,1.93
2018-04-02T22:17:03.861Z,1.93
2018-04-02T22:19:32.259Z,2.67
2018-04-02T22:22:02.423Z,2.37
2018-04-02T22:24:32.248Z,2.80
2018-04-02T22:27:00.845Z,2.13
2018-04-02T22:29:30.363Z,2.63
2018-04-02T22:31:58.692Z,4.60
2018-04-02T22:34:27.739Z,3.27
2018-04-02T22:36:56.826Z,2.00
2018-04-02T22:39:26.021Z,3.43
2018-04-02T22:41:55.162Z,3.73
2018-04-02T22:44:23.715Z,3.07
2018-04-02T22:46:52.230Z,2.27
2018-04-02T22:49:20.810Z,2.90
2018-04-02T22:51:49.348Z,2.33
2018-04-02T22:54:17.723Z,3.03
2018-04-02T22:56:47.747Z,2.47
2018-04-02T22:59:16.750Z,3.93
2018-04-02T23:01:46.169Z,2.13
2018-04-02T23:04:15.414Z,2.37
2018-04-02T23:06:45.595Z,4.33
2018-04-02T23:09:14.779Z,2.57
2018-04-02T23:11:43.133Z,2.80
2018-04-02T23:14:12.612Z,3.57
2018-04-02T23:16:42.061Z,3.30
2018-04-02T23:19:11.498Z,4.03
2018-04-02T23:21:40.768Z,2.70
2018-04-02T23:24:09.370Z,3.43
2018-04-02T23:26:39.333Z,3.47
2018-04-02T23:29:09.236Z,4.97
2018-04-02T23:31:38.457Z,2.90
2018-04-02T23:34:08.907Z,4.47
2018-04-02T23:36:37.638Z,2.53
2018-04-02T23:39:07.470Z,6.20
2018-04-02T23:41:36.178Z,3.67
2018-04-02T23:44:04.523Z,6.20
2018-04-02T23:46:34.109Z,4.30
2018-04-02T23:49:04.353Z,3.93
2018-04-02T23:51:34.272Z,5.90
2018-04-02T23:54:02.782Z,3.17
2018-04-02T23:56:31.855Z,3.83
2018-04-02T23:59:00.970Z,4.43
